sensor_id;sensor_type;location;lat;lon;timestamp;pressure;altitude;pressure_sealevel;temperature;humidity
61292;BME280;47165;42.664;23.368;2023-02-19T00:00:59;95294.13;;;10.12;43.17
61292;BME280;47165;42.664;23.368;2023-02-19T00:03:25;95278.63;;;10.09;43.23
61292;BME280;47165;42.664;23.368;2023-02-19T00:05:51;95289.97;;;10.08;43.36
61292;BME280;47165;42.664;23.368;2023-02-19T00:08:16;95290.91;;;9.90;43.81
61292;BME280;47165;42.664;23.368;2023-02-19T00:10:42;95284.16;;;9.85;43.84
61292;BME280;47165;42.664;23.368;2023-02-19T00:13:07;95261.53;;;9.32;44.93
61292;BME280;47165;42.664;23.368;2023-02-19T00:15:33;95283.91;;;9.36;44.86
61292;BME280;47165;42.664;23.368;2023-02-19T00:17:58;95285.16;;;9.46;44.76
61292;BME280;47165;42.664;23.368;2023-02-19T00:20:24;95281.13;;;9.58;44.31
61292;BME280;47165;42.664;23.368;2023-02-19T00:22:49;95281.75;;;9.63;44.18
61292;BME280;47165;42.664;23.368;2023-02-19T00:25:15;95281.59;;;9.66;44.27
61292;BME280;47165;42.664;23.368;2023-02-19T00:27:40;95280.78;;;9.66;44.37
61292;BME280;47165;42.664;23.368;2023-02-19T00:30:06;95281.66;;;9.65;44.30
61292;BME280;47165;42.664;23.368;2023-02-19T00:32:32;95265.09;;;9.49;44.82
61292;BME280;47165;42.664;23.368;2023-02-19T00:34:57;95262.25;;;9.53;44.79
61292;BME280;47165;42.664;23.368;2023-02-19T00:37:23;95273.38;;;9.57;44.62
61292;BME280;47165;42.664;23.368;2023-02-19T00:39:48;95258.03;;;9.51;44.61
61292;BME280;47165;42.664;23.368;2023-02-19T00:42:14;95257.78;;;9.38;45.16
61292;BME280;47165;42.664;23.368;2023-02-19T00:44:39;95274.44;;;9.35;44.95
61292;BME280;47165;42.664;23.368;2023-02-19T00:47:05;95266.81;;;9.31;45.46
61292;BME280;47165;42.664;23.368;2023-02-19T00:49:30;95257.69;;;9.22;45.14
61292;BME280;47165;42.664;23.368;2023-02-19T00:51:56;95264.59;;;9.23;45.43
61292;BME280;47165;42.664;23.368;2023-02-19T00:54:21;95257.84;;;9.19;45.59
61292;BME280;47165;42.664;23.368;2023-02-19T00:56:47;95248.03;;;9.24;45.55
61292;BME280;47165;42.664;23.368;2023-02-19T00:59:14;95245.34;;;9.25;45.41
61292;BME280;47165;42.664;23.368;2023-02-19T01:01:40;95253.94;;;9.27;45.14
61292;BME280;47165;42.664;23.368;2023-02-19T01:04:06;95248.19;;;9.21;44.94
61292;BME280;47165;42.664;23.368;2023-02-19T01:06:32;95247.31;;;9.20;45.06
61292;BME280;47165;42.664;23.368;2023-02-19T01:08:58;95263.66;;;9.24;45.40
61292;BME280;47165;42.664;23.368;2023-02-19T01:11:24;95265.19;;;9.11;46.12
61292;BME280;47165;42.664;23.368;2023-02-19T01:13:49;95258.78;;;8.99;46.17
61292;BME280;47165;42.664;23.368;2023-02-19T01:16:18;95260.66;;;8.95;46.25
61292;BME280;47165;42.664;23.368;2023-02-19T01:18:45;95257.28;;;8.93;46.14
61292;BME280;47165;42.664;23.368;2023-02-19T01:21:14;95244.13;;;8.96;46.13
61292;BME280;47165;42.664;23.368;2023-02-19T01:23:40;95252.78;;;8.97;46.33
61292;BME280;47165;42.664;23.368;2023-02-19T01:26:08;95239.53;;;9.01;45.76
61292;BME280;47165;42.664;23.368;2023-02-19T01:28:35;95250.25;;;8.95;46.17
61292;BME280;47165;42.664;23.368;2023-02-19T01:31:06;95267.47;;;8.98;46.02
61292;BME280;47165;42.664;23.368;2023-02-19T01:33:32;95264.31;;;8.91;46.36
61292;BME280;47165;42.664;23.368;2023-02-19T01:35:58;95266.81;;;8.94;46.14
61292;BME280;47165;42.664;23.368;2023-02-19T01:38:23;95265.75;;;8.98;46.06
61292;BME280;47165;42.664;23.368;2023-02-19T01:40:59;95260.81;;;8.92;46.00
61292;BME280;47165;42.664;23.368;2023-02-19T01:43:25;95275.50;;;8.93;46.39
61292;BME280;47165;42.664;23.368;2023-02-19T01:45:51;95283.09;;;8.98;45.78
61292;BME280;47165;42.664;23.368;2023-02-19T01:48:23;95297.00;;;8.98;46.04
61292;BME280;47165;42.664;23.368;2023-02-19T01:50:57;95303.25;;;8.94;45.86
61292;BME280;47165;42.664;23.368;2023-02-19T01:53:28;95296.69;;;8.85;46.06
61292;BME280;47165;42.664;23.368;2023-02-19T01:55:58;95295.63;;;8.71;46.39
61292;BME280;47165;42.664;23.368;2023-02-19T01:58:27;95304.16;;;8.74;46.52
61292;BME280;47165;42.664;23.368;2023-02-19T02:00:53;95288.09;;;8.64;46.99
61292;BME280;47165;42.664;23.368;2023-02-19T02:03:19;95309.91;;;8.62;46.92
61292;BME280;47165;42.664;23.368;2023-02-19T02:08:30;95295.19;;;8.40;47.71
61292;BME280;47165;42.664;23.368;2023-02-19T02:11:14;95311.78;;;8.38;47.62
61292;BME280;47165;42.664;23.368;2023-02-19T02:13:41;95294.06;;;8.27;48.17
61292;BME280;47165;42.664;23.368;2023-02-19T02:21:52;95290.78;;;8.01;48.45
61292;BME280;47165;42.664;23.368;2023-02-19T02:32:11;95291.97;;;8.15;48.26
61292;BME280;47165;42.664;23.368;2023-02-19T02:34:56;95296.19;;;8.17;48.21
61292;BME280;47165;42.664;23.368;2023-02-19T02:37:25;95298.00;;;8.15;48.14
61292;BME280;47165;42.664;23.368;2023-02-19T02:39:52;95288.13;;;8.23;47.61
61292;BME280;47165;42.664;23.368;2023-02-19T02:42:18;95298.78;;;8.17;48.11
61292;BME280;47165;42.664;23.368;2023-02-19T02:44:53;95294.09;;;8.25;47.62
61292;BME280;47165;42.664;23.368;2023-02-19T02:47:52;95287.59;;;8.36;47.75
61292;BME280;47165;42.664;23.368;2023-02-19T02:52:47;95282.28;;;8.39;47.74
61292;BME280;47165;42.664;23.368;2023-02-19T02:55:37;95279.56;;;8.42;47.49
61292;BME280;47165;42.664;23.368;2023-02-19T02:58:05;95281.31;;;8.41;47.57
61292;BME280;47165;42.664;23.368;2023-02-19T03:00:33;95287.25;;;8.45;47.54
61292;BME280;47165;42.664;23.368;2023-02-19T03:03:20;95287.03;;;8.50;47.39
61292;BME280;47165;42.664;23.368;2023-02-19T03:05:48;95285.91;;;8.55;47.42
61292;BME280;47165;42.664;23.368;2023-02-19T03:08:21;95293.56;;;8.58;47.05
61292;BME280;47165;42.664;23.368;2023-02-19T03:10:54;95297.66;;;8.64;46.78
61292;BME280;47165;42.664;23.368;2023-02-19T03:13:29;95302.16;;;8.60;46.73
61292;BME280;47165;42.664;23.368;2023-02-19T03:16:25;95301.25;;;8.61;47.27
61292;BME280;47165;42.664;23.368;2023-02-19T03:19:13;95304.41;;;8.49;47.24
61292;BME280;47165;42.664;23.368;2023-02-19T03:21:46;95308.56;;;8.33;47.70
61292;BME280;47165;42.664;23.368;2023-02-19T03:24:15;95310.75;;;8.21;47.94
61292;BME280;47165;42.664;23.368;2023-02-19T03:27:03;95319.59;;;8.17;47.99
61292;BME280;47165;42.664;23.368;2023-02-19T03:29:30;95335.09;;;8.20;47.97
61292;BME280;47165;42.664;23.368;2023-02-19T03:32:00;95315.91;;;8.23;48.12
61292;BME280;47165;42.664;23.368;2023-02-19T03:34:48;95318.09;;;8.12;48.26
61292;BME280;47165;42.664;23.368;2023-02-19T03:37:30;95323.66;;;8.24;48.17
61292;BME280;47165;42.664;23.368;2023-02-19T03:39:57;95344.19;;;8.10;48.22
61292;BME280;47165;42.664;23.368;2023-02-19T03:45:26;95343.72;;;8.00;48.55
61292;BME280;47165;42.664;23.368;2023-02-19T03:56:32;95354.44;;;8.13;48.49
61292;BME280;47165;42.664;23.368;2023-02-19T03:59:19;95352.00;;;8.10;48.34
61292;BME280;47165;42.664;23.368;2023-02-19T04:01:52;95349.50;;;8.07;48.49
61292;BME280;47165;42.664;23.368;2023-02-19T04:06:46;95358.16;;;8.07;48.13
61292;BME280;47165;42.664;23.368;2023-02-19T04:09:18;95347.84;;;8.06;48.41
61292;BME280;47165;42.664;23.368;2023-02-19T04:11:45;95343.78;;;7.99;48.45
61292;BME280;47165;42.664;23.368;2023-02-19T04:14:18;95353.97;;;8.03;48.18
61292;BME280;47165;42.664;23.368;2023-02-19T04:16:50;95354.22;;;7.97;48.83
61292;BME280;47165;42.664;23.368;2023-02-19T04:19:19;95363.59;;;8.01;48.75
61292;BME280;47165;42.664;23.368;2023-02-19T04:21:46;95365.50;;;7.98;48.54
61292;BME280;47165;42.664;23.368;2023-02-19T04:24:18;95364.72;;;7.96;48.54
61292;BME280;47165;42.664;23.368;2023-02-19T04:26:46;95366.34;;;7.76;49.30
61292;BME280;47165;42.664;23.368;2023-02-19T04:29:11;95367.28;;;7.75;49.32
61292;BME280;47165;42.664;23.368;2023-02-19T04:31:37;95374.84;;;7.59;49.96
61292;BME280;47165;42.664;23.368;2023-02-19T04:34:03;95373.69;;;7.44;50.30
61292;BME280;47165;42.664;23.368;2023-02-19T04:36:30;95359.47;;;7.31;50.87
61292;BME280;47165;42.664;23.368;2023-02-19T04:38:56;95361.28;;;7.29;50.81
61292;BME280;47165;42.664;23.368;2023-02-19T04:41:21;95389.88;;;7.05;51.60
61292;BME280;47165;42.664;23.368;2023-02-19T04:43:47;95379.19;;;6.90;52.07
61292;BME280;47165;42.664;23.368;2023-02-19T04:46:12;95374.09;;;6.87;52.16
61292;BME280;47165;42.664;23.368;2023-02-19T04:48:38;95385.00;;;6.96;51.70
61292;BME280;47165;42.664;23.368;2023-02-19T04:51:05;95381.63;;;6.94;51.82
61292;BME280;47165;42.664;23.368;2023-02-19T04:53:30;95373.66;;;6.99;51.75
61292;BME280;47165;42.664;23.368;2023-02-19T04:55:56;95367.63;;;6.98;51.68
61292;BME280;47165;42.664;23.368;2023-02-19T04:58:21;95382.56;;;7.15;51.41
61292;BME280;47165;42.664;23.368;2023-02-19T05:00:51;95373.75;;;7.19;50.95
61292;BME280;47165;42.664;23.368;2023-02-19T05:03:17;95387.19;;;7.31;50.75
61292;BME280;47165;42.664;23.368;2023-02-19T05:05:42;95383.63;;;7.33;50.89
61292;BME280;47165;42.664;23.368;2023-02-19T05:08:08;95393.13;;;7.34;50.75
61292;BME280;47165;42.664;23.368;2023-02-19T05:10:33;95385.34;;;7.34;50.84
61292;BME280;47165;42.664;23.368;2023-02-19T05:12:59;95388.81;;;7.33;50.70
61292;BME280;47165;42.664;23.368;2023-02-19T05:15:24;95371.66;;;7.29;51.25
61292;BME280;47165;42.664;23.368;2023-02-19T05:17:49;95397.63;;;7.29;51.02
61292;BME280;47165;42.664;23.368;2023-02-19T05:20:15;95383.91;;;7.25;51.44
61292;BME280;47165;42.664;23.368;2023-02-19T05:22:40;95393.41;;;7.27;50.80
61292;BME280;47165;42.664;23.368;2023-02-19T05:25:06;95396.78;;;7.29;51.38
61292;BME280;47165;42.664;23.368;2023-02-19T05:27:31;95381.38;;;7.24;51.04
61292;BME280;47165;42.664;23.368;2023-02-19T05:29:57;95389.56;;;7.37;50.92
61292;BME280;47165;42.664;23.368;2023-02-19T05:32:22;95396.50;;;7.36;50.80
61292;BME280;47165;42.664;23.368;2023-02-19T05:34:49;95412.19;;;7.33;51.01
61292;BME280;47165;42.664;23.368;2023-02-19T05:37:15;95406.69;;;7.19;51.98
61292;BME280;47165;42.664;23.368;2023-02-19T05:39:40;95405.38;;;7.31;50.75
61292;BME280;47165;42.664;23.368;2023-02-19T05:42:06;95401.41;;;7.44;51.21
61292;BME280;47165;42.664;23.368;2023-02-19T05:44:31;95414.09;;;7.52;50.65
61292;BME280;47165;42.664;23.368;2023-02-19T05:46:57;95411.81;;;7.66;50.37
61292;BME280;47165;42.664;23.368;2023-02-19T05:49:22;95408.09;;;7.73;50.08
61292;BME280;47165;42.664;23.368;2023-02-19T05:51:51;95406.72;;;7.85;50.16
61292;BME280;47165;42.664;23.368;2023-02-19T05:54:16;95418.25;;;7.79;49.80
61292;BME280;47165;42.664;23.368;2023-02-19T05:56:41;95408.69;;;7.80;49.88
61292;BME280;47165;42.664;23.368;2023-02-19T05:59:15;95423.31;;;7.82;49.70
61292;BME280;47165;42.664;23.368;2023-02-19T06:01:41;95420.63;;;7.62;50.11
61292;BME280;47165;42.664;23.368;2023-02-19T06:04:07;95426.91;;;7.56;50.14
61292;BME280;47165;42.664;23.368;2023-02-19T06:06:33;95422.63;;;7.55;50.45
61292;BME280;47165;42.664;23.368;2023-02-19T06:08:59;95432.75;;;7.63;50.55
61292;BME280;47165;42.664;23.368;2023-02-19T06:11:24;95442.75;;;7.72;50.31
61292;BME280;47165;42.664;23.368;2023-02-19T06:13:50;95442.53;;;7.78;49.99
61292;BME280;47165;42.664;23.368;2023-02-19T06:16:16;95440.38;;;7.90;49.98
61292;BME280;47165;42.664;23.368;2023-02-19T06:18:43;95450.53;;;7.96;49.68
61292;BME280;47165;42.664;23.368;2023-02-19T06:21:10;95440.19;;;7.94;50.37
61292;BME280;47165;42.664;23.368;2023-02-19T06:23:36;95440.66;;;8.04;49.84
61292;BME280;47165;42.664;23.368;2023-02-19T06:26:22;95445.38;;;8.16;49.85
61292;BME280;47165;42.664;23.368;2023-02-19T06:28:49;95438.09;;;8.24;49.50
61292;BME280;47165;42.664;23.368;2023-02-19T06:31:16;95445.53;;;8.34;49.43
61292;BME280;47165;42.664;23.368;2023-02-19T06:33:42;95440.91;;;8.40;49.13
61292;BME280;47165;42.664;23.368;2023-02-19T06:36:11;95422.59;;;8.43;49.11
61292;BME280;47165;42.664;23.368;2023-02-19T06:38:37;95443.69;;;8.58;49.05
61292;BME280;47165;42.664;23.368;2023-02-19T06:41:04;95445.91;;;8.67;48.81
61292;BME280;47165;42.664;23.368;2023-02-19T06:43:31;95442.97;;;8.75;48.68
61292;BME280;47165;42.664;23.368;2023-02-19T06:46:01;95431.66;;;8.76;49.01
61292;BME280;47165;42.664;23.368;2023-02-19T06:48:27;95430.41;;;8.84;48.49
61292;BME280;47165;42.664;23.368;2023-02-19T06:50:53;95445.28;;;9.01;48.55
61292;BME280;47165;42.664;23.368;2023-02-19T06:53:19;95448.91;;;9.18;48.36
61292;BME280;47165;42.664;23.368;2023-02-19T06:55:54;95443.16;;;9.30;48.28
61292;BME280;47165;42.664;23.368;2023-02-19T06:58:19;95447.47;;;9.31;47.87
61292;BME280;47165;42.664;23.368;2023-02-19T07:00:45;95453.03;;;9.42;47.71
61292;BME280;47165;42.664;23.368;2023-02-19T07:03:10;95459.59;;;9.51;47.76
61292;BME280;47165;42.664;23.368;2023-02-19T07:05:36;95459.25;;;9.59;47.54
61292;BME280;47165;42.664;23.368;2023-02-19T07:08:01;95455.53;;;9.64;47.21
61292;BME280;47165;42.664;23.368;2023-02-19T07:10:26;95453.34;;;9.74;46.99
61292;BME280;47165;42.664;23.368;2023-02-19T07:12:52;95451.22;;;9.82;46.59
61292;BME280;47165;42.664;23.368;2023-02-19T07:15:17;95454.44;;;9.87;46.65
61292;BME280;47165;42.664;23.368;2023-02-19T07:17:42;95455.56;;;10.01;46.45
61292;BME280;47165;42.664;23.368;2023-02-19T07:20:08;95453.56;;;10.06;45.91
61292;BME280;47165;42.664;23.368;2023-02-19T07:22:33;95446.38;;;10.11;46.03
61292;BME280;47165;42.664;23.368;2023-02-19T07:24:59;95433.81;;;10.19;45.57
61292;BME280;47165;42.664;23.368;2023-02-19T07:27:24;95434.19;;;10.29;45.56
61292;BME280;47165;42.664;23.368;2023-02-19T07:29:50;95422.13;;;10.26;45.43
61292;BME280;47165;42.664;23.368;2023-02-19T07:32:15;95422.34;;;10.41;45.46
61292;BME280;47165;42.664;23.368;2023-02-19T07:34:40;95418.66;;;10.45;45.07
61292;BME280;47165;42.664;23.368;2023-02-19T07:37:06;95418.09;;;10.56;45.15
61292;BME280;47165;42.664;23.368;2023-02-19T07:39:31;95420.09;;;10.68;44.88
61292;BME280;47165;42.664;23.368;2023-02-19T07:41:57;95415.44;;;10.75;44.76
61292;BME280;47165;42.664;23.368;2023-02-19T07:44:22;95415.66;;;10.87;44.50
61292;BME280;47165;42.664;23.368;2023-02-19T07:46:47;95423.88;;;10.97;44.92
61292;BME280;47165;42.664;23.368;2023-02-19T07:49:13;95414.88;;;11.19;44.55
61292;BME280;47165;42.664;23.368;2023-02-19T07:51:38;95421.38;;;11.27;43.90
61292;BME280;47165;42.664;23.368;2023-02-19T07:54:04;95423.19;;;11.43;43.61
61292;BME280;47165;42.664;23.368;2023-02-19T07:56:30;95419.31;;;11.50;43.18
61292;BME280;47165;42.664;23.368;2023-02-19T07:58:56;95420.16;;;11.66;42.94
61292;BME280;47165;42.664;23.368;2023-02-19T08:01:22;95417.97;;;11.75;43.04
61292;BME280;47165;42.664;23.368;2023-02-19T08:04:07;95418.03;;;11.91;43.15
61292;BME280;47165;42.664;23.368;2023-02-19T08:06:32;95407.22;;;11.97;42.77
61292;BME280;47165;42.664;23.368;2023-02-19T08:08:58;95412.59;;;12.10;41.87
61292;BME280;47165;42.664;23.368;2023-02-19T08:11:23;95409.19;;;12.23;42.27
61292;BME280;47165;42.664;23.368;2023-02-19T08:14:07;95407.59;;;12.37;41.31
61292;BME280;47165;42.664;23.368;2023-02-19T08:16:33;95403.00;;;12.40;41.41
61292;BME280;47165;42.664;23.368;2023-02-19T08:18:58;95397.16;;;12.51;41.89
61292;BME280;47165;42.664;23.368;2023-02-19T08:21:24;95409.72;;;12.75;41.69
61292;BME280;47165;42.664;23.368;2023-02-19T08:23:49;95411.03;;;12.67;41.22
61292;BME280;47165;42.664;23.368;2023-02-19T08:26:15;95409.25;;;12.68;40.39
61292;BME280;47165;42.664;23.368;2023-02-19T08:28:40;95407.50;;;12.83;40.38
61292;BME280;47165;42.664;23.368;2023-02-19T08:31:08;95406.38;;;12.87;40.25
61292;BME280;47165;42.664;23.368;2023-02-19T08:33:34;95397.69;;;12.86;39.95
61292;BME280;47165;42.664;23.368;2023-02-19T08:36:02;95407.13;;;12.89;39.88
61292;BME280;47165;42.664;23.368;2023-02-19T08:38:29;95406.09;;;12.92;39.79
61292;BME280;47165;42.664;23.368;2023-02-19T08:40:55;95409.22;;;12.98;39.82
61292;BME280;47165;42.664;23.368;2023-02-19T08:43:20;95403.78;;;13.16;39.44
61292;BME280;47165;42.664;23.368;2023-02-19T08:45:46;95396.22;;;13.11;39.24
61292;BME280;47165;42.664;23.368;2023-02-19T08:48:12;95412.53;;;13.31;39.18
61292;BME280;47165;42.664;23.368;2023-02-19T08:50:38;95398.78;;;13.41;39.12
61292;BME280;47165;42.664;23.368;2023-02-19T08:53:04;95394.66;;;13.37;38.81
61292;BME280;47165;42.664;23.368;2023-02-19T08:55:30;95393.91;;;13.35;39.13
61292;BME280;47165;42.664;23.368;2023-02-19T08:57:55;95383.09;;;13.54;38.83
61292;BME280;47165;42.664;23.368;2023-02-19T09:00:21;95375.78;;;13.59;39.16
61292;BME280;47165;42.664;23.368;2023-02-19T09:02:47;95379.88;;;13.63;38.96
61292;BME280;47165;42.664;23.368;2023-02-19T09:05:14;95385.75;;;13.81;38.74
61292;BME280;47165;42.664;23.368;2023-02-19T09:07:40;95369.38;;;13.78;38.73
61292;BME280;47165;42.664;23.368;2023-02-19T09:10:06;95363.78;;;13.97;38.25
61292;BME280;47165;42.664;23.368;2023-02-19T09:12:32;95357.94;;;14.06;38.12
61292;BME280;47165;42.664;23.368;2023-02-19T09:14:59;95365.31;;;14.14;38.13
61292;BME280;47165;42.664;23.368;2023-02-19T09:17:25;95337.19;;;14.16;38.15
61292;BME280;47165;42.664;23.368;2023-02-19T09:19:50;95336.31;;;14.55;37.84
61292;BME280;47165;42.664;23.368;2023-02-19T09:22:16;95326.72;;;14.41;37.84
61292;BME280;47165;42.664;23.368;2023-02-19T09:24:42;95337.28;;;14.93;37.33
61292;BME280;47165;42.664;23.368;2023-02-19T09:27:08;95328.25;;;14.97;37.23
61292;BME280;47165;42.664;23.368;2023-02-19T09:29:35;95332.84;;;15.19;36.95
61292;BME280;47165;42.664;23.368;2023-02-19T09:32:00;95330.53;;;15.27;36.65
61292;BME280;47165;42.664;23.368;2023-02-19T09:34:27;95320.25;;;15.24;36.65
61292;BME280;47165;42.664;23.368;2023-02-19T09:36:53;95336.03;;;15.24;36.70
61292;BME280;47165;42.664;23.368;2023-02-19T09:39:19;95317.41;;;15.14;36.88
61292;BME280;47165;42.664;23.368;2023-02-19T09:42:10;95334.88;;;15.28;36.95
61292;BME280;47165;42.664;23.368;2023-02-19T09:44:39;95320.53;;;15.19;37.20
61292;BME280;47165;42.664;23.368;2023-02-19T09:47:16;95329.81;;;15.25;37.18
61292;BME280;47165;42.664;23.368;2023-02-19T09:49:44;95321.91;;;15.25;37.14
61292;BME280;47165;42.664;23.368;2023-02-19T09:55:03;95314.75;;;15.64;36.97
61292;BME280;47165;42.664;23.368;2023-02-19T09:57:30;95301.59;;;15.64;36.49
61292;BME280;47165;42.664;23.368;2023-02-19T10:00:20;95298.63;;;15.68;36.44
61292;BME280;47165;42.664;23.368;2023-02-19T10:02:50;95310.53;;;15.74;35.96
61292;BME280;47165;42.664;23.368;2023-02-19T10:05:15;95286.75;;;15.76;35.70
61292;BME280;47165;42.664;23.368;2023-02-19T10:07:47;95280.63;;;15.99;34.75
61292;BME280;47165;42.664;23.368;2023-02-19T10:12:42;95279.94;;;16.08;34.66
61292;BME280;47165;42.664;23.368;2023-02-19T10:15:21;95272.94;;;16.20;34.37
61292;BME280;47165;42.664;23.368;2023-02-19T10:17:49;95269.22;;;16.34;33.88
61292;BME280;47165;42.664;23.368;2023-02-19T10:20:17;95263.38;;;16.42;33.68
61292;BME280;47165;42.664;23.368;2023-02-19T10:22:43;95254.78;;;16.51;33.56
61292;BME280;47165;42.664;23.368;2023-02-19T10:25:13;95249.66;;;16.72;33.17
61292;BME280;47165;42.664;23.368;2023-02-19T10:27:39;95248.47;;;16.76;32.94
61292;BME280;47165;42.664;23.368;2023-02-19T10:30:05;95244.84;;;16.77;33.19
61292;BME280;47165;42.664;23.368;2023-02-19T10:32:31;95238.63;;;16.67;32.47
61292;BME280;47165;42.664;23.368;2023-02-19T10:35:11;95234.44;;;16.64;32.80
61292;BME280;47165;42.664;23.368;2023-02-19T10:37:47;95225.69;;;16.75;32.24
61292;BME280;47165;42.664;23.368;2023-02-19T10:40:27;95220.78;;;17.27;32.55
61292;BME280;47165;42.664;23.368;2023-02-19T10:42:56;95218.09;;;17.49;31.71
61292;BME280;47165;42.664;23.368;2023-02-19T10:45:40;95214.59;;;17.81;31.13
61292;BME280;47165;42.664;23.368;2023-02-19T10:48:21;95203.75;;;17.96;30.40
61292;BME280;47165;42.664;23.368;2023-02-19T10:50:51;95200.09;;;18.08;30.33
61292;BME280;47165;42.664;23.368;2023-02-19T10:53:23;95204.22;;;18.01;30.01
61292;BME280;47165;42.664;23.368;2023-02-19T10:58:39;95193.06;;;18.39;30.58
61292;BME280;47165;42.664;23.368;2023-02-19T11:01:15;95182.72;;;18.57;30.45
61292;BME280;47165;42.664;23.368;2023-02-19T11:03:41;95173.72;;;18.39;29.83
61292;BME280;47165;42.664;23.368;2023-02-19T11:06:09;95180.19;;;18.56;29.68
61292;BME280;47165;42.664;23.368;2023-02-19T11:08:48;95163.38;;;18.05;30.32
61292;BME280;47165;42.664;23.368;2023-02-19T11:11:23;95159.25;;;18.43;29.69
61292;BME280;47165;42.664;23.368;2023-02-19T11:13:50;95154.25;;;19.01;28.80
61292;BME280;47165;42.664;23.368;2023-02-19T11:16:16;95145.03;;;19.75;28.33
61292;BME280;47165;42.664;23.368;2023-02-19T11:18:41;95157.38;;;20.33;27.34
61292;BME280;47165;42.664;23.368;2023-02-19T11:21:24;95142.47;;;20.69;26.58
61292;BME280;47165;42.664;23.368;2023-02-19T11:23:52;95134.03;;;21.12;26.09
61292;BME280;47165;42.664;23.368;2023-02-19T11:26:24;95125.28;;;21.47;25.46
61292;BME280;47165;42.664;23.368;2023-02-19T11:29:17;95121.47;;;21.85;25.79
61292;BME280;47165;42.664;23.368;2023-02-19T11:31:44;95109.34;;;22.27;25.82
61292;BME280;47165;42.664;23.368;2023-02-19T11:36:39;95096.81;;;22.80;24.13
61292;BME280;47165;42.664;23.368;2023-02-19T11:50:02;95072.34;;;24.50;22.17
61292;BME280;47165;42.664;23.368;2023-02-19T12:00:57;95051.53;;;24.85;20.99
61292;BME280;47165;42.664;23.368;2023-02-19T12:06:30;95040.53;;;24.80;20.53
61292;BME280;47165;42.664;23.368;2023-02-19T12:09:21;95040.09;;;23.87;21.30
61292;BME280;47165;42.664;23.368;2023-02-19T12:14:42;95033.06;;;23.95;20.83
61292;BME280;47165;42.664;23.368;2023-02-19T12:22:30;95011.75;;;23.29;21.04
61292;BME280;47165;42.664;23.368;2023-02-19T12:27:38;94999.75;;;23.74;20.94
61292;BME280;47165;42.664;23.368;2023-02-19T12:32:48;94991.81;;;24.78;19.92
61292;BME280;47165;42.664;23.368;2023-02-19T12:50:54;94964.84;;;26.84;18.50
61292;BME280;47165;42.664;23.368;2023-02-19T12:58:57;94950.03;;;27.96;18.21
61292;BME280;47165;42.664;23.368;2023-02-19T13:01:29;94935.44;;;28.12;17.27
61292;BME280;47165;42.664;23.368;2023-02-19T13:04:13;94927.91;;;28.63;17.92
61292;BME280;47165;42.664;23.368;2023-02-19T13:09:55;94922.63;;;29.03;16.79
61292;BME280;47165;42.664;23.368;2023-02-19T13:12:30;94916.09;;;29.39;16.45
61292;BME280;47165;42.664;23.368;2023-02-19T13:15:13;94903.25;;;29.41;15.93
61292;BME280;47165;42.664;23.368;2023-02-19T13:17:45;94920.63;;;29.25;15.75
61292;BME280;47165;42.664;23.368;2023-02-19T13:20:34;94907.59;;;29.42;16.06
61292;BME280;47165;42.664;23.368;2023-02-19T13:23:15;94906.53;;;29.63;16.48
61292;BME280;47165;42.664;23.368;2023-02-19T13:37:40;94884.06;;;30.88;15.04
61292;BME280;47165;42.664;23.368;2023-02-19T13:40:39;94877.94;;;30.67;14.04
61292;BME280;47165;42.664;23.368;2023-02-19T13:43:22;94874.09;;;30.82;14.48
61292;BME280;47165;42.664;23.368;2023-02-19T13:45:54;94874.56;;;30.79;14.49
61292;BME280;47165;42.664;23.368;2023-02-19T13:50:50;94862.28;;;30.44;14.97
61292;BME280;47165;42.664;23.368;2023-02-19T14:04:52;94864.44;;;28.14;16.55
61292;BME280;47165;42.664;23.368;2023-02-19T14:07:27;94860.72;;;27.52;16.69
61292;BME280;47165;42.664;23.368;2023-02-19T14:09:57;94852.94;;;27.07;17.42
61292;BME280;47165;42.664;23.368;2023-02-19T14:12:31;94861.28;;;26.76;17.68
61292;BME280;47165;42.664;23.368;2023-02-19T14:18:00;94858.84;;;26.23;18.10
61292;BME280;47165;42.664;23.368;2023-02-19T14:20:41;94855.63;;;26.13;18.16
61292;BME280;47165;42.664;23.368;2023-02-19T14:23:21;94852.59;;;26.01;18.06
61292;BME280;47165;42.664;23.368;2023-02-19T14:25:50;94849.34;;;26.06;18.20
61292;BME280;47165;42.664;23.368;2023-02-19T14:34:00;94828.97;;;26.41;18.32
61292;BME280;47165;42.664;23.368;2023-02-19T14:39:11;94827.03;;;26.35;18.67
61292;BME280;47165;42.664;23.368;2023-02-19T14:41:41;94829.50;;;25.85;18.91
61292;BME280;47165;42.664;23.368;2023-02-19T14:44:20;94828.25;;;24.53;20.37
61292;BME280;47165;42.664;23.368;2023-02-19T14:46:59;94824.19;;;24.57;20.60
61292;BME280;47165;42.664;23.368;2023-02-19T14:49:31;94819.88;;;24.56;20.61
61292;BME280;47165;42.664;23.368;2023-02-19T14:52:02;94811.88;;;24.56;20.79
61292;BME280;47165;42.664;23.368;2023-02-19T14:54:41;94820.13;;;24.38;21.05
61292;BME280;47165;42.664;23.368;2023-02-19T14:57:21;94830.66;;;24.39;21.13
61292;BME280;47165;42.664;23.368;2023-02-19T14:59:59;94820.22;;;24.53;20.95
61292;BME280;47165;42.664;23.368;2023-02-19T15:02:26;94813.59;;;24.72;21.18
61292;BME280;47165;42.664;23.368;2023-02-19T15:04:52;94809.13;;;24.41;21.16
61292;BME280;47165;42.664;23.368;2023-02-19T15:07:27;94805.47;;;24.10;21.20
61292;BME280;47165;42.664;23.368;2023-02-19T15:09:57;94810.41;;;23.90;21.79
61292;BME280;47165;42.664;23.368;2023-02-19T15:12:30;94803.47;;;23.81;22.03
61292;BME280;47165;42.664;23.368;2023-02-19T15:15:00;94803.16;;;23.60;22.50
61292;BME280;47165;42.664;23.368;2023-02-19T15:17:29;94807.06;;;23.41;22.40
61292;BME280;47165;42.664;23.368;2023-02-19T15:19:57;94793.16;;;22.48;23.61
61292;BME280;47165;42.664;23.368;2023-02-19T15:22:28;94806.31;;;22.34;23.72
61292;BME280;47165;42.664;23.368;2023-02-19T15:24:59;94805.91;;;22.20;24.13
61292;BME280;47165;42.664;23.368;2023-02-19T15:27:25;94821.84;;;22.12;24.70